createdAt,value
2019-04-28T00:05:02.232Z,89.66
2019-04-28T00:07:32.225Z,90.23
2019-04-28T00:10:01.167Z,89.69
2019-04-28T00:12:31.118Z,89.98
2019-04-28T00:14:59.707Z,89.69
2019-04-28T00:17:28.681Z,89.65
2019-04-28T00:20:01.355Z,90.21
2019-04-28T00:22:34.221Z,90.40
2019-04-28T00:25:04.477Z,90.71
2019-04-28T00:27:33.104Z,91.14
2019-04-28T00:30:02.178Z,92.21
2019-04-28T00:32:32.545Z,92.83
2019-04-28T00:35:02.320Z,93.16
2019-04-28T00:37:32.214Z,93.46
2019-04-28T00:40:01.082Z,93.75
2019-04-28T00:42:31.460Z,94.23
2019-04-28T00:45:01.651Z,94.70
2019-04-28T00:47:31.147Z,95.06
2019-04-28T00:50:02.117Z,95.54
2019-04-28T00:52:31.973Z,95.81
2019-04-28T00:55:01.157Z,95.78
2019-04-28T00:57:30.950Z,95.71
2019-04-28T01:00:02.040Z,95.45
2019-04-28T01:02:31.875Z,95.31
2019-04-28T01:05:01.482Z,95.42
2019-04-28T01:07:31.294Z,95.27
2019-04-28T01:10:01.385Z,95.00
2019-04-28T01:12:31.126Z,95.11
2019-04-28T01:15:02.626Z,95.18
2019-04-28T01:17:39.659Z,95.45
2019-04-28T01:20:10.079Z,95.58
2019-04-28T01:22:40.134Z,95.44
2019-04-28T01:25:10.521Z,95.49
2019-04-28T01:27:40.982Z,95.49
2019-04-28T01:30:11.509Z,95.53
2019-04-28T01:32:49.743Z,95.54
2019-04-28T01:35:20.825Z,95.58
2019-04-28T01:37:50.509Z,95.41
2019-04-28T01:40:20.497Z,95.20
2019-04-28T01:42:49.947Z,95.07
2019-04-28T01:45:20.441Z,95.15
2019-04-28T01:47:50.376Z,95.11
2019-04-28T01:50:20.430Z,95.10
2019-04-28T01:52:49.665Z,94.97
2019-04-28T01:55:20.075Z,94.58
2019-04-28T01:57:49.820Z,94.29
2019-04-28T02:00:25.027Z,93.52
2019-04-28T02:02:50.561Z,93.31
2019-04-28T02:05:19.788Z,93.01
2019-04-28T02:07:50.551Z,93.19
2019-04-28T02:10:21.523Z,92.96
2019-04-28T02:12:50.314Z,92.65
2019-04-28T02:15:20.197Z,92.73
2019-04-28T02:17:51.362Z,92.94
2019-04-28T02:20:20.580Z,92.36
2019-04-28T02:22:53.282Z,91.60
2019-04-28T02:25:21.832Z,91.15
2019-04-28T02:27:50.409Z,91.28
2019-04-28T02:30:20.910Z,90.73
2019-04-28T02:32:51.845Z,90.27
2019-04-28T02:35:21.383Z,90.55
2019-04-28T02:37:50.663Z,90.60
2019-04-28T02:40:20.643Z,90.15
2019-04-28T02:42:51.967Z,89.41
2019-04-28T02:45:21.766Z,89.14
2019-04-28T02:47:52.471Z,89.57
2019-04-28T02:50:33.081Z,89.45
2019-04-28T02:53:03.529Z,89.87
2019-04-28T02:55:32.973Z,90.08
2019-04-28T02:58:01.811Z,89.28
2019-04-28T03:00:31.668Z,89.27
2019-04-28T03:03:01.575Z,89.20
2019-04-28T03:05:33.132Z,89.57
2019-04-28T03:08:01.241Z,88.90
2019-04-28T03:10:31.040Z,88.80
2019-04-28T03:13:01.200Z,89.04
2019-04-28T03:15:30.378Z,89.08
2019-04-28T03:18:01.822Z,89.15
2019-04-28T03:20:30.590Z,89.09
2019-04-28T03:23:00.999Z,89.83
2019-04-28T03:25:33.397Z,89.90
2019-04-28T03:28:12.212Z,90.31
2019-04-28T03:30:45.751Z,90.67
2019-04-28T03:33:18.883Z,91.44
2019-04-28T03:35:46.653Z,91.01
2019-04-28T03:38:15.702Z,91.34
2019-04-28T03:40:44.398Z,91.41
2019-04-28T03:43:14.356Z,92.08
2019-04-28T03:45:53.931Z,92.62
2019-04-28T03:48:22.533Z,92.82
2019-04-28T03:50:51.509Z,93.15
2019-04-28T03:53:20.770Z,92.83
2019-04-28T03:55:51.295Z,93.06
2019-04-28T03:58:23.661Z,93.63
2019-04-28T04:00:50.753Z,93.86
2019-04-28T04:03:21.135Z,93.69
2019-04-28T04:05:50.897Z,94.01
2019-04-28T04:08:20.920Z,94.40
2019-04-28T04:10:51.337Z,94.29
2019-04-28T04:13:33.311Z,93.71
2019-04-28T04:16:21.680Z,93.73
2019-04-28T04:18:54.798Z,93.89
2019-04-28T04:21:23.527Z,93.78
2019-04-28T04:23:52.137Z,94.31
2019-04-28T04:26:21.500Z,94.38
2019-04-28T04:28:51.435Z,94.21
2019-04-28T04:31:20.347Z,94.09
2019-04-28T04:33:50.534Z,94.24
2019-04-28T04:36:21.153Z,94.28
2019-04-28T04:38:51.208Z,94.43
2019-04-28T04:41:20.262Z,93.38
2019-04-28T04:43:51.344Z,93.23
2019-04-28T04:46:22.077Z,93.36
2019-04-28T04:48:51.417Z,92.93
2019-04-28T04:51:21.233Z,92.84
2019-04-28T04:53:51.332Z,93.09
2019-04-28T04:56:21.286Z,92.68
2019-04-28T04:58:50.686Z,92.88
2019-04-28T05:01:40.671Z,92.73
2019-04-28T05:04:20.153Z,92.20
2019-04-28T05:06:49.702Z,92.42
2019-04-28T05:09:19.648Z,93.31
2019-04-28T05:11:49.934Z,92.93
2019-04-28T05:14:19.820Z,93.12
2019-04-28T05:16:49.752Z,93.55
2019-04-28T05:19:19.862Z,93.82
2019-04-28T05:21:49.856Z,93.21
2019-04-28T05:24:26.016Z,93.34
2019-04-28T05:26:56.146Z,93.20
2019-04-28T05:29:26.879Z,93.03
2019-04-28T05:31:59.833Z,92.66
2019-04-28T05:34:31.162Z,92.08
2019-04-28T05:37:00.724Z,92.20
2019-04-28T05:39:29.880Z,91.87
2019-04-28T05:41:58.450Z,91.69
2019-04-28T05:44:27.016Z,91.54
2019-04-28T05:46:59.568Z,91.83
2019-04-28T05:49:45.084Z,91.72
2019-04-28T05:52:31.836Z,91.76
2019-04-28T05:55:14.065Z,90.47
2019-04-28T05:57:53.001Z,89.84
2019-04-28T06:00:41.831Z,90.96
2019-04-28T06:03:14.679Z,90.21
2019-04-28T06:05:43.245Z,90.19
2019-04-28T06:08:30.321Z,90.01
2019-04-28T06:10:59.935Z,88.80
2019-04-28T06:13:30.293Z,88.28
2019-04-28T06:15:59.902Z,88.90
2019-04-28T06:18:28.659Z,88.26
2019-04-28T06:20:58.821Z,87.91
2019-04-28T06:23:27.649Z,87.19
2019-04-28T06:25:57.906Z,86.98
2019-04-28T06:28:26.771Z,86.81
2019-04-28T06:30:55.331Z,86.88
2019-04-28T06:33:24.087Z,84.26
2019-04-28T06:35:52.862Z,84.70
2019-04-28T06:38:21.473Z,84.99
2019-04-28T06:40:50.420Z,83.68
2019-04-28T06:43:19.030Z,84.72
2019-04-28T06:45:47.609Z,84.83
2019-04-28T06:48:16.321Z,83.56
2019-04-28T06:50:44.980Z,83.31
2019-04-28T06:53:13.855Z,83.73
2019-04-28T06:55:42.593Z,84.69
2019-04-28T06:58:11.242Z,83.80
2019-04-28T07:00:39.880Z,82.92
2019-04-28T07:03:17.016Z,83.45
2019-04-28T07:05:39.033Z,84.41
2019-04-28T07:08:08.671Z,84.12
2019-04-28T07:10:37.335Z,83.54
2019-04-28T07:13:06.061Z,84.06
2019-04-28T07:15:34.686Z,82.57
2019-04-28T07:18:03.305Z,82.69
2019-04-28T07:20:33.566Z,83.82
2019-04-28T07:23:02.115Z,83.88
2019-04-28T07:25:30.992Z,83.89
2019-04-28T07:28:00.033Z,83.34
2019-04-28T07:30:28.920Z,83.76
2019-04-28T07:33:00.387Z,83.51
2019-04-28T07:35:28.983Z,85.45
2019-04-28T07:37:57.697Z,86.45
2019-04-28T07:40:26.550Z,86.35
2019-04-28T07:42:57.312Z,85.94
2019-04-28T07:45:26.417Z,85.05
2019-04-28T07:47:56.188Z,84.82
2019-04-28T07:50:24.755Z,83.84
2019-04-28T07:53:06.420Z,82.56
2019-04-28T07:55:35.016Z,82.11
2019-04-28T07:58:03.624Z,81.84
2019-04-28T08:00:32.459Z,80.16
2019-04-28T08:03:02.133Z,79.72
2019-04-28T08:05:30.748Z,79.50
2019-04-28T08:07:59.368Z,81.33
2019-04-28T08:10:29.554Z,80.64
2019-04-28T08:13:00.951Z,81.80
2019-04-28T08:15:29.508Z,83.44
2019-04-28T08:17:58.407Z,85.25
2019-04-28T08:20:27.017Z,87.10
2019-04-28T08:22:55.986Z,88.31
2019-04-28T08:25:24.551Z,88.44
2019-04-28T08:27:53.160Z,86.57
2019-04-28T08:30:21.768Z,86.05
2019-04-28T08:32:57.905Z,84.80
2019-04-28T08:35:26.688Z,83.46
2019-04-28T08:37:55.918Z,82.67
2019-04-28T08:40:24.717Z,82.22
2019-04-28T08:42:53.285Z,83.92
2019-04-28T08:45:21.952Z,79.37
2019-04-28T08:47:50.668Z,78.44
2019-04-28T08:50:19.551Z,76.91
2019-04-28T08:52:48.127Z,75.71
2019-04-28T08:55:17.207Z,76.91
2019-04-28T08:57:45.787Z,77.81
2019-04-28T09:00:16.713Z,80.69
2019-04-28T09:02:45.430Z,83.19
2019-04-28T09:05:14.749Z,85.79
2019-04-28T09:07:43.358Z,86.80
2019-04-28T09:10:12.187Z,87.41
2019-04-28T09:12:40.832Z,87.20
2019-04-28T09:15:09.654Z,87.71
2019-04-28T09:17:38.344Z,89.13
2019-04-28T09:20:07.871Z,87.98
2019-04-28T09:22:36.484Z,86.34
2019-04-28T09:25:06.875Z,84.00
2019-04-28T09:27:35.542Z,84.21
2019-04-28T09:30:06.939Z,83.03
2019-04-28T09:32:35.555Z,84.03
2019-04-28T09:35:08.353Z,85.26
2019-04-28T09:37:36.967Z,84.59
2019-04-28T09:40:08.411Z,83.32
2019-04-28T09:42:38.601Z,83.27
2019-04-28T09:45:09.498Z,82.27
2019-04-28T09:47:38.065Z,80.23
2019-04-28T09:50:07.257Z,78.37
2019-04-28T09:52:36.106Z,76.74
2019-04-28T09:55:06.061Z,78.46
2019-04-28T09:57:34.685Z,76.47
2019-04-28T10:00:04.303Z,74.82
2019-04-28T10:02:32.851Z,77.59
2019-04-28T10:05:01.422Z,75.26
2019-04-28T10:07:30.436Z,76.34
2019-04-28T10:09:58.994Z,78.10
2019-04-28T10:12:29.968Z,76.91
2019-04-28T10:14:58.573Z,77.67
2019-04-28T10:17:28.688Z,75.33
2019-04-28T10:20:17.880Z,74.85
2019-04-28T10:22:47.050Z,71.12
2019-04-28T10:25:16.429Z,69.79
2019-04-28T10:27:45.043Z,67.61
2019-04-28T10:30:16.415Z,66.25
2019-04-28T10:32:44.975Z,65.51
2019-04-28T10:35:15.180Z,65.74
2019-04-28T10:37:45.563Z,68.01
2019-04-28T10:40:19.201Z,66.15
2019-04-28T10:42:47.755Z,65.77
2019-04-28T10:45:20.846Z,65.98
2019-04-28T10:47:49.568Z,63.26
2019-04-28T10:50:18.567Z,63.95
2019-04-28T10:52:47.448Z,64.80
2019-04-28T10:55:16.151Z,63.58
2019-04-28T10:57:44.749Z,64.26
2019-04-28T11:00:14.046Z,63.71
2019-04-28T11:02:43.385Z,62.96
2019-04-28T11:05:16.381Z,62.62
2019-04-28T11:07:45.089Z,62.02
2019-04-28T11:10:15.268Z,65.22
2019-04-28T11:12:43.888Z,62.91
2019-04-28T11:15:20.319Z,60.72
2019-04-28T11:17:49.240Z,61.03
2019-04-28T11:20:17.868Z,63.33
2019-04-28T11:22:46.488Z,60.17
2019-04-28T11:25:15.210Z,58.80
2019-04-28T11:27:43.750Z,59.54
2019-04-28T11:30:13.144Z,61.35
2019-04-28T11:32:43.337Z,59.99
2019-04-28T11:35:32.529Z,62.34
2019-04-28T11:38:01.141Z,60.82
2019-04-28T11:40:29.791Z,60.04
2019-04-28T11:42:58.579Z,61.93
2019-04-28T11:45:29.243Z,62.01
2019-04-28T11:47:59.511Z,62.35
2019-04-28T11:50:30.897Z,62.85
2019-04-28T11:52:59.707Z,61.95
2019-04-28T11:55:28.326Z,60.56
2019-04-28T11:57:56.883Z,62.20
2019-04-28T12:00:35.804Z,61.56
2019-04-28T12:03:04.642Z,61.36
2019-04-28T12:05:35.035Z,61.55
2019-04-28T12:08:03.730Z,63.12
2019-04-28T12:10:52.355Z,61.45
2019-04-28T12:28:17.613Z,63.92
2019-04-28T12:30:59.571Z,64.26
2019-04-28T12:39:44.092Z,64.30
2019-04-28T12:42:19.271Z,65.89
2019-04-28T12:44:47.915Z,64.54
2019-04-28T12:47:16.526Z,62.75
2019-04-28T12:49:49.755Z,62.89
2019-04-28T12:52:18.881Z,63.59
2019-04-28T12:54:47.603Z,62.04
2019-04-28T12:57:16.545Z,63.71
2019-04-28T12:59:49.447Z,62.48
2019-04-28T13:02:35.471Z,62.90
2019-04-28T13:05:10.341Z,62.63
2019-04-28T13:07:38.991Z,62.59
2019-04-28T13:10:07.882Z,64.25
2019-04-28T13:12:36.529Z,64.33
2019-04-28T13:15:06.667Z,63.83
2019-04-28T13:17:35.275Z,64.63
2019-04-28T13:20:04.406Z,65.06
2019-04-28T13:22:33.541Z,65.20
2019-04-28T13:25:02.382Z,62.07
2019-04-28T13:27:30.978Z,60.06
2019-04-28T13:29:59.585Z,59.51
2019-04-28T13:32:47.511Z,59.61
2019-04-28T13:35:16.885Z,59.59
2019-04-28T13:37:46.073Z,58.46
2019-04-28T13:40:34.580Z,58.02
2019-04-28T13:43:03.382Z,55.38
2019-04-28T13:45:32.339Z,57.45
2019-04-28T13:48:01.218Z,57.02
2019-04-28T13:50:31.628Z,54.78
2019-04-28T13:53:00.292Z,56.06
2019-04-28T13:55:30.590Z,55.90
2019-04-28T13:58:01.576Z,55.04
2019-04-28T14:00:40.546Z,55.15
2019-04-28T14:03:23.058Z,56.36
2019-04-28T14:05:55.980Z,55.28
2019-04-28T14:08:24.532Z,56.62
2019-04-28T14:10:53.098Z,55.76
2019-04-28T14:13:21.748Z,56.43
2019-04-28T14:15:50.725Z,55.87
2019-04-28T14:18:19.674Z,55.77
2019-04-28T14:20:48.487Z,57.14
2019-04-28T14:23:17.424Z,58.33
2019-04-28T14:25:46.408Z,56.74
2019-04-28T14:28:15.325Z,56.42
2019-04-28T14:30:43.935Z,56.70
2019-04-28T14:33:12.605Z,55.18
2019-04-28T14:35:41.278Z,59.53
2019-04-28T14:38:09.885Z,57.40
2019-04-28T14:40:38.436Z,58.33
2019-04-28T14:43:07.032Z,60.25
2019-04-28T14:45:35.997Z,58.89
2019-04-28T14:48:04.674Z,59.50
2019-04-28T14:50:33.276Z,60.34
2019-04-28T14:53:01.990Z,59.83
2019-04-28T14:55:30.752Z,59.46
2019-04-28T14:57:59.784Z,59.81
2019-04-28T15:00:39.083Z,60.11
2019-04-28T15:03:11.788Z,60.48
2019-04-28T15:05:42.157Z,58.16
2019-04-28T15:08:17.990Z,58.93
2019-04-28T15:11:00.306Z,58.89
2019-04-28T15:13:29.153Z,57.42
2019-04-28T15:15:57.889Z,57.68
2019-04-28T15:18:26.912Z,58.10
2019-04-28T15:20:55.739Z,58.81
2019-04-28T15:23:24.339Z,58.83
2019-04-28T15:25:52.951Z,58.88
2019-04-28T15:28:21.573Z,58.19
2019-04-28T15:30:50.292Z,58.99
2019-04-28T15:33:19.029Z,57.00
2019-04-28T15:35:47.624Z,56.39
2019-04-28T15:38:16.345Z,55.50
2019-04-28T15:40:45.057Z,52.18
2019-04-28T15:43:13.616Z,50.88
2019-04-28T15:45:42.496Z,52.21
2019-04-28T15:48:11.094Z,51.21
2019-04-28T15:50:39.636Z,51.89
2019-04-28T15:53:08.206Z,51.41
2019-04-28T15:55:38.468Z,51.76
2019-04-28T15:58:27.892Z,53.20
2019-04-28T16:00:56.448Z,53.22
2019-04-28T16:03:25.624Z,57.18
2019-04-28T16:05:54.331Z,55.50
2019-04-28T16:08:22.968Z,55.19
2019-04-28T16:10:51.588Z,57.20
2019-04-28T16:13:20.203Z,54.87
2019-04-28T16:15:48.814Z,56.15
2019-04-28T16:18:17.387Z,55.43
2019-04-28T16:20:46.138Z,56.49
2019-04-28T16:23:14.986Z,54.94
2019-04-28T16:25:43.627Z,55.49
2019-04-28T16:28:12.256Z,54.88
2019-04-28T16:30:40.778Z,54.48
2019-04-28T16:33:09.368Z,53.69
2019-04-28T16:35:37.985Z,55.36
2019-04-28T16:38:06.544Z,54.51
2019-04-28T16:40:35.447Z,54.50
2019-04-28T16:43:04.913Z,54.28
2019-04-28T16:45:33.556Z,54.83
2019-04-28T16:48:02.164Z,55.46
2019-04-28T16:50:31.228Z,55.60
2019-04-28T16:52:59.900Z,56.29
2019-04-28T16:55:30.556Z,55.85
2019-04-28T16:58:03.260Z,56.02
2019-04-28T17:00:48.298Z,56.28
2019-04-28T17:03:17.490Z,55.94
2019-04-28T17:05:46.112Z,56.94
2019-04-28T17:08:14.821Z,56.80
2019-04-28T17:10:43.637Z,57.43
2019-04-28T17:13:12.357Z,56.85
2019-04-28T17:15:40.976Z,57.82
2019-04-28T17:18:09.585Z,58.29
2019-04-28T17:20:38.209Z,59.26
2019-04-28T17:23:06.814Z,58.48
2019-04-28T17:25:35.559Z,57.47
2019-04-28T17:28:04.364Z,57.70
2019-04-28T17:30:33.091Z,58.07
2019-04-28T17:33:01.662Z,57.42
2019-04-28T17:35:30.540Z,57.79
2019-04-28T17:38:06.412Z,58.79
2019-04-28T17:40:30.839Z,58.67
2019-04-28T17:42:59.977Z,59.02
2019-04-28T17:45:28.534Z,58.39
2019-04-28T17:48:00.286Z,59.38
2019-04-28T17:50:29.445Z,59.51
2019-04-28T17:52:59.573Z,61.03
2019-04-28T17:55:30.863Z,60.52
2019-04-28T17:57:59.492Z,63.58
2019-04-28T18:00:47.773Z,61.13
2019-04-28T18:03:30.525Z,61.74
2019-04-28T18:06:17.884Z,62.11
2019-04-28T18:08:47.220Z,62.59
2019-04-28T18:11:16.330Z,62.56
2019-04-28T18:13:44.939Z,63.54
2019-04-28T18:16:30.551Z,63.80
2019-04-28T18:19:01.210Z,63.28
2019-04-28T18:21:30.228Z,63.77
2019-04-28T18:23:58.837Z,63.54
2019-04-28T18:26:30.447Z,67.82
2019-04-28T18:28:59.060Z,64.53
2019-04-28T18:31:29.307Z,64.17
2019-04-28T18:34:16.257Z,63.60
2019-04-28T18:36:46.514Z,63.92
2019-04-28T18:39:32.944Z,65.14
2019-04-28T18:42:03.226Z,65.80
2019-04-28T18:44:31.913Z,66.18
2019-04-28T18:47:00.520Z,65.21
2019-04-28T18:49:29.134Z,65.63
2019-04-28T18:51:57.743Z,67.37
2019-04-28T18:54:26.961Z,67.95
2019-04-28T18:56:57.846Z,69.53
2019-04-28T18:59:26.459Z,69.24
2019-04-28T19:01:59.477Z,68.45
2019-04-28T19:04:29.622Z,68.87
2019-04-28T19:07:05.288Z,69.80
2019-04-28T19:09:33.302Z,69.94
2019-04-28T19:12:03.568Z,69.12
2019-04-28T19:14:36.842Z,72.09
2019-04-28T19:17:09.937Z,71.37
2019-04-28T19:19:40.363Z,71.63
2019-04-28T19:22:08.973Z,73.22
2019-04-28T19:24:37.584Z,73.56
2019-04-28T19:27:06.398Z,74.29
2019-04-28T19:29:35.017Z,72.42
2019-04-28T19:32:03.700Z,72.02
2019-04-28T19:34:32.376Z,71.86
2019-04-28T19:37:01.085Z,71.92
2019-04-28T19:39:30.068Z,74.04
2019-04-28T19:41:58.631Z,73.34
2019-04-28T19:44:29.173Z,73.54
2019-04-28T19:46:57.944Z,72.85
2019-04-28T19:49:26.911Z,74.35
2019-04-28T19:51:55.830Z,74.52
2019-04-28T19:54:26.192Z,74.94
2019-04-28T19:57:05.462Z,75.28
2019-04-28T19:59:52.003Z,76.27
2019-04-28T20:02:20.731Z,76.54
2019-04-28T20:04:49.364Z,76.53
2019-04-28T20:07:17.987Z,76.79
2019-04-28T20:09:46.631Z,76.94
2019-04-28T20:12:15.289Z,76.37
2019-04-28T20:14:43.889Z,76.70
2019-04-28T20:17:12.959Z,75.85
2019-04-28T20:19:41.571Z,77.31
2019-04-28T20:22:10.202Z,78.49
2019-04-28T20:24:46.949Z,78.06
2019-04-28T20:27:09.132Z,77.72
2019-04-28T20:29:37.789Z,78.76
2019-04-28T20:32:06.438Z,79.51
2019-04-28T20:34:35.073Z,80.11
2019-04-28T20:37:08.108Z,80.14
2019-04-28T20:39:36.750Z,79.73
2019-04-28T20:42:23.262Z,78.23
2019-04-28T20:44:52.306Z,79.17
2019-04-28T20:47:20.923Z,80.10
2019-04-28T20:49:49.557Z,78.70
2019-04-28T20:52:18.208Z,79.08
2019-04-28T20:54:46.809Z,80.13
2019-04-28T20:57:15.428Z,80.46
2019-04-28T20:59:44.067Z,81.33
2019-04-28T21:02:13.025Z,82.25
2019-04-28T21:04:41.651Z,81.26
2019-04-28T21:07:10.269Z,81.81
2019-04-28T21:09:38.987Z,80.81
2019-04-28T21:12:08.027Z,81.64
2019-04-28T21:14:36.754Z,82.67
2019-04-28T21:17:05.475Z,81.92
2019-04-28T21:19:34.734Z,80.86
2019-04-28T21:22:03.373Z,81.10
2019-04-28T21:24:32.008Z,81.10
2019-04-28T21:27:00.669Z,80.42
2019-04-28T21:29:29.321Z,79.82
2019-04-28T21:31:59.457Z,80.43
2019-04-28T21:34:29.280Z,79.89
2019-04-28T21:36:58.148Z,80.90
2019-04-28T21:39:30.009Z,80.90
2019-04-28T21:42:00.019Z,80.12
2019-04-28T21:44:30.285Z,79.84
2019-04-28T21:47:01.160Z,80.10
2019-04-28T21:49:31.806Z,79.85
2019-04-28T21:52:00.418Z,79.70
2019-04-28T21:54:29.026Z,79.87
2019-04-28T21:57:00.609Z,81.70
2019-04-28T21:59:29.219Z,79.97
2019-04-28T22:01:57.865Z,79.72
2019-04-28T22:04:28.219Z,79.84
2019-04-28T22:07:00.229Z,80.43
2019-04-28T22:09:28.878Z,80.54
2019-04-28T22:12:00.583Z,79.99
2019-04-28T22:14:29.158Z,80.52
2019-04-28T22:16:57.718Z,80.25
2019-04-28T22:19:27.963Z,80.75
2019-04-28T22:21:56.586Z,80.05
2019-04-28T22:24:38.825Z,80.94
2019-04-28T22:27:09.072Z,80.34
2019-04-28T22:29:37.691Z,79.70
2019-04-28T22:32:06.305Z,79.83
2019-04-28T22:34:34.912Z,80.10
2019-04-28T22:37:03.535Z,79.47
2019-04-28T22:39:32.180Z,79.75
2019-04-28T22:42:00.905Z,79.11
2019-04-28T22:44:29.786Z,78.19
2019-04-28T22:46:58.714Z,78.40
2019-04-28T22:49:28.866Z,78.31
2019-04-28T22:52:00.149Z,77.95
2019-04-28T22:54:30.396Z,78.05
2019-04-28T22:57:00.655Z,78.06
2019-04-28T22:59:39.908Z,77.27
2019-04-28T23:02:13.128Z,77.85
2019-04-28T23:04:49.113Z,78.60
2019-04-28T23:07:18.101Z,78.04
2019-04-28T23:09:46.656Z,78.51
2019-04-28T23:12:15.244Z,78.17
2019-04-28T23:14:43.802Z,78.31
2019-04-28T23:17:13.995Z,78.49
2019-04-28T23:19:43.973Z,78.35
2019-04-28T23:22:23.745Z,78.21
2019-04-28T23:25:06.405Z,78.84
2019-04-28T23:27:34.970Z,79.77
2019-04-28T23:30:05.268Z,78.32
2019-04-28T23:35:37.103Z,78.19
2019-04-28T23:41:10.058Z,79.43
2019-04-28T23:43:38.976Z,79.22
2019-04-28T23:46:07.555Z,79.22
2019-04-28T23:48:36.829Z,79.23
2019-04-28T23:51:16.199Z,79.36
2019-04-28T23:53:58.143Z,80.11
2019-04-28T23:56:29.840Z,80.77
2019-04-28T23:58:58.434Z,80.39
